createdAt,value
2023-05-22T00:02:19.573Z,96668.97
2023-05-22T00:04:47.548Z,96671.25
2023-05-22T00:07:15.182Z,96668.06
2023-05-22T00:09:42.716Z,96661.09
2023-05-22T00:12:10.506Z,96663.84
2023-05-22T00:14:39.373Z,96661.00
2023-05-22T00:17:06.966Z,96660.78
2023-05-22T00:19:35.260Z,96662.25
2023-05-22T00:22:02.947Z,96674.75
2023-05-22T00:24:30.510Z,96656.09
2023-05-22T00:26:58.140Z,96664.94
2023-05-22T00:29:25.717Z,96666.59
2023-05-22T00:31:54.624Z,96665.22
2023-05-22T00:34:22.242Z,96670.38
2023-05-22T00:36:49.831Z,96659.28
2023-05-22T00:39:17.398Z,96655.84
2023-05-22T00:41:44.961Z,96653.25
2023-05-22T00:44:12.878Z,96652.25
2023-05-22T00:46:40.879Z,96658.91
2023-05-22T00:49:09.853Z,96650.16
2023-05-22T00:51:37.779Z,96646.28
2023-05-22T00:54:06.223Z,96640.38
2023-05-22T00:56:33.937Z,96642.63
2023-05-22T00:59:01.655Z,96637.47
2023-05-22T01:01:33.438Z,96642.88
2023-05-22T01:04:02.000Z,96640.22
2023-05-22T01:06:32.239Z,96617.38
2023-05-22T01:08:59.964Z,96649.81
2023-05-22T01:11:33.302Z,96652.84
2023-05-22T01:14:04.037Z,96647.91
2023-05-22T01:16:36.148Z,96653.44
2023-05-22T01:19:17.961Z,96654.47
2023-05-22T01:21:50.182Z,96648.19
2023-05-22T01:24:47.101Z,96631.53
2023-05-22T01:27:35.388Z,96658.91
2023-05-22T01:30:21.117Z,96657.53
2023-05-22T01:32:50.818Z,96663.88
2023-05-22T01:35:19.714Z,96663.69
2023-05-22T01:37:47.789Z,96668.63
2023-05-22T01:40:15.501Z,96667.63
2023-05-22T01:42:43.258Z,96665.44
2023-05-22T01:45:12.253Z,96666.44
2023-05-22T01:47:39.869Z,96669.53
2023-05-22T01:50:09.891Z,96671.34
2023-05-22T01:52:44.417Z,96666.88
2023-05-22T01:55:14.577Z,96668.31
2023-05-22T01:57:47.744Z,96665.50
2023-05-22T02:00:16.588Z,96664.47
2023-05-22T02:02:49.088Z,96666.09
2023-05-22T02:05:19.633Z,96661.59
2023-05-22T02:07:47.505Z,96658.53
2023-05-22T02:10:15.582Z,96666.09
2023-05-22T02:12:43.292Z,96661.41
2023-05-22T02:15:11.452Z,96661.84
2023-05-22T02:17:41.439Z,96640.44
2023-05-22T02:20:14.405Z,96656.75
2023-05-22T02:22:45.289Z,96652.03
2023-05-22T02:25:14.505Z,96663.72
2023-05-22T02:27:43.082Z,96659.66
2023-05-22T02:30:11.703Z,96644.50
2023-05-22T02:32:39.937Z,96636.16
2023-05-22T02:35:08.027Z,96649.19
2023-05-22T02:37:36.243Z,96641.06
2023-05-22T02:40:06.730Z,96640.03
2023-05-22T02:42:34.316Z,96638.78
2023-05-22T02:45:01.987Z,96634.72
2023-05-22T02:47:30.516Z,96624.13
2023-05-22T02:49:59.192Z,96639.84
2023-05-22T02:52:28.244Z,96640.69
2023-05-22T02:54:55.854Z,96642.50
2023-05-22T02:57:24.750Z,96648.66
2023-05-22T02:59:52.621Z,96648.84
2023-05-22T03:02:20.294Z,96645.38
2023-05-22T03:04:47.954Z,96645.81
2023-05-22T03:07:15.578Z,96652.56
2023-05-22T03:09:43.215Z,96652.34
2023-05-22T03:12:11.380Z,96652.56
2023-05-22T03:14:40.276Z,96654.38
2023-05-22T03:17:07.852Z,96654.00
2023-05-22T03:19:35.661Z,96649.28
2023-05-22T03:22:03.210Z,96650.31
2023-05-22T03:24:31.672Z,96652.16
2023-05-22T03:27:00.436Z,96660.31
2023-05-22T03:29:28.021Z,96653.16
2023-05-22T03:31:57.953Z,96662.16
2023-05-22T03:34:27.342Z,96662.34
2023-05-22T03:36:54.975Z,96659.88
2023-05-22T03:39:22.577Z,96663.75
2023-05-22T03:41:50.246Z,96665.81
2023-05-22T03:44:17.827Z,96659.28
2023-05-22T03:46:45.493Z,96657.03
2023-05-22T03:49:15.263Z,96652.34
2023-05-22T03:51:42.853Z,96636.81
2023-05-22T03:54:10.432Z,96664.78
2023-05-22T03:56:39.092Z,96659.66
2023-05-22T03:59:06.667Z,96658.63
2023-05-22T04:01:34.626Z,96654.16
2023-05-22T04:04:02.294Z,96637.38
2023-05-22T04:06:32.940Z,96636.38
2023-05-22T04:09:01.489Z,96651.88
2023-05-22T04:11:30.418Z,96651.66
2023-05-22T04:13:58.266Z,96652.63
2023-05-22T04:16:25.867Z,96653.06
2023-05-22T04:18:53.497Z,96652.03
2023-05-22T04:21:21.073Z,96648.13
2023-05-22T04:23:49.985Z,96649.66
2023-05-22T04:26:18.102Z,96645.78
2023-05-22T04:28:46.293Z,96640.28
2023-05-22T04:31:13.988Z,96655.38
2023-05-22T04:33:41.705Z,96631.28
2023-05-22T04:36:12.348Z,96655.53
2023-05-22T04:38:41.328Z,96659.59
2023-05-22T04:41:10.336Z,96661.56
2023-05-22T04:43:38.651Z,96660.22
2023-05-22T04:46:06.342Z,96658.59
2023-05-22T04:48:33.935Z,96639.13
2023-05-22T04:51:02.521Z,96665.13
2023-05-22T04:53:30.390Z,96657.44
2023-05-22T04:55:58.008Z,96649.53
2023-05-22T04:58:27.469Z,96650.88
2023-05-22T05:00:57.753Z,96655.06
2023-05-22T05:03:26.379Z,96658.56
2023-05-22T05:05:53.947Z,96654.19
2023-05-22T05:08:21.546Z,96645.25
2023-05-22T05:10:49.128Z,96664.25
2023-05-22T05:13:16.748Z,96660.34
2023-05-22T05:15:45.816Z,96648.13
2023-05-22T05:18:13.477Z,96655.56
2023-05-22T05:20:41.236Z,96644.44
2023-05-22T05:23:10.428Z,96630.63
2023-05-22T05:25:38.841Z,96641.22
2023-05-22T05:28:10.766Z,96650.16
2023-05-22T05:30:39.384Z,96644.06
2023-05-22T05:33:08.467Z,96660.31
2023-05-22T05:35:36.356Z,96650.00
2023-05-22T05:38:03.933Z,96656.84
2023-05-22T05:40:31.468Z,96647.53
2023-05-22T05:42:59.075Z,96656.81
2023-05-22T05:45:27.035Z,96650.16
2023-05-22T05:47:54.723Z,96653.84
2023-05-22T05:50:23.786Z,96657.94
2023-05-22T05:52:51.349Z,96653.34
2023-05-22T05:55:19.661Z,96649.31
2023-05-22T05:57:47.227Z,96652.88
2023-05-22T06:00:15.432Z,96653.16
2023-05-22T06:02:43.675Z,96654.47
2023-05-22T06:05:11.500Z,96632.91
2023-05-22T06:07:40.946Z,96654.09
2023-05-22T06:10:10.839Z,96649.81
2023-05-22T06:12:38.461Z,96652.63
2023-05-22T06:15:08.691Z,96650.72
2023-05-22T06:17:37.161Z,96651.53
2023-05-22T06:20:05.389Z,96644.31
2023-05-22T06:22:32.923Z,96654.94
2023-05-22T06:25:01.887Z,96657.31
2023-05-22T06:27:29.477Z,96651.13
2023-05-22T06:29:57.166Z,96652.75
2023-05-22T06:32:24.897Z,96651.88
2023-05-22T06:34:52.584Z,96657.19
2023-05-22T06:37:20.167Z,96656.63
2023-05-22T06:39:47.692Z,96655.16
2023-05-22T06:42:16.627Z,96655.78
2023-05-22T06:44:44.235Z,96645.94
2023-05-22T06:47:11.845Z,96657.13
2023-05-22T06:49:39.441Z,96652.44
2023-05-22T06:52:07.470Z,96653.34
2023-05-22T06:54:35.089Z,96656.72
2023-05-22T06:57:04.374Z,96646.34
2023-05-22T06:59:33.356Z,96658.16
2023-05-22T07:02:00.921Z,96659.22
2023-05-22T07:04:28.637Z,96665.09
2023-05-22T07:06:56.283Z,96653.84
2023-05-22T07:09:23.915Z,96655.69
2023-05-22T07:11:51.528Z,96653.78
2023-05-22T07:14:19.085Z,96659.25
2023-05-22T07:16:48.111Z,96660.59
2023-05-22T07:19:15.816Z,96656.78
2023-05-22T07:21:43.428Z,96661.19
2023-05-22T07:24:11.023Z,96666.91
2023-05-22T07:26:39.361Z,96664.28
2023-05-22T07:29:06.936Z,96655.47
2023-05-22T07:31:34.618Z,96655.44
2023-05-22T07:34:03.693Z,96664.09
2023-05-22T07:36:31.801Z,96641.53
2023-05-22T07:38:59.710Z,96646.91
2023-05-22T07:41:28.147Z,96655.84
2023-05-22T07:43:55.738Z,96652.63
2023-05-22T07:46:23.335Z,96649.94
2023-05-22T07:48:51.016Z,96648.66
2023-05-22T07:51:20.024Z,96650.53
2023-05-22T07:53:47.669Z,96642.53
2023-05-22T07:56:15.462Z,96648.22
2023-05-22T07:58:43.998Z,96646.63
2023-05-22T08:01:11.662Z,96641.25
2023-05-22T08:03:39.367Z,96642.88
2023-05-22T08:06:08.052Z,96643.97
2023-05-22T08:08:37.196Z,96639.94
2023-05-22T08:11:05.112Z,96633.19
2023-05-22T08:13:33.328Z,96644.53
2023-05-22T08:16:01.544Z,96636.41
2023-05-22T08:18:29.921Z,96639.47
2023-05-22T08:20:57.799Z,96642.69
2023-05-22T08:23:25.682Z,96636.47
2023-05-22T08:25:54.627Z,96641.06
2023-05-22T08:28:22.805Z,96631.06
2023-05-22T08:30:50.436Z,96645.06
2023-05-22T08:33:19.899Z,96638.00
2023-05-22T08:35:47.458Z,96633.97
2023-05-22T08:38:16.351Z,96626.13
2023-05-22T08:40:48.735Z,96628.53
2023-05-22T08:43:17.884Z,96639.63
2023-05-22T08:45:45.856Z,96632.59
2023-05-22T08:48:14.466Z,96620.19
2023-05-22T08:50:43.118Z,96630.66
2023-05-22T08:53:13.505Z,96633.59
2023-05-22T08:55:41.313Z,96631.38
2023-05-22T08:58:09.706Z,96627.59
2023-05-22T09:00:38.948Z,96623.00
2023-05-22T09:03:13.809Z,96624.78
2023-05-22T09:05:41.720Z,96621.50
2023-05-22T09:08:19.937Z,96627.44
2023-05-22T09:10:48.310Z,96621.31
2023-05-22T09:13:26.145Z,96627.91
2023-05-22T09:15:55.626Z,96623.81
2023-05-22T09:18:26.766Z,96622.31
2023-05-22T09:20:54.348Z,96625.03
2023-05-22T09:23:22.361Z,96624.72
2023-05-22T09:25:49.960Z,96628.38
2023-05-22T09:28:17.620Z,96616.59
2023-05-22T09:30:49.872Z,96611.56
2023-05-22T09:33:19.310Z,96629.56
2023-05-22T09:35:47.343Z,96625.50
2023-05-22T09:38:15.119Z,96629.06
2023-05-22T09:40:43.114Z,96629.59
2023-05-22T09:43:11.153Z,96616.00
2023-05-22T09:45:40.038Z,96610.31
2023-05-22T09:48:09.836Z,96613.78
2023-05-22T09:50:40.135Z,96622.34
2023-05-22T09:53:09.046Z,96622.41
2023-05-22T09:55:37.910Z,96627.94
2023-05-22T09:58:06.815Z,96603.16
2023-05-22T10:00:35.130Z,96618.41
2023-05-22T10:03:05.194Z,96591.03
2023-05-22T10:05:33.989Z,96611.78
2023-05-22T10:08:11.285Z,96614.97
2023-05-22T10:10:40.280Z,96615.25
2023-05-22T10:13:08.459Z,96593.69
2023-05-22T10:15:36.641Z,96609.16
2023-05-22T10:18:04.612Z,96609.59
2023-05-22T10:20:32.378Z,96604.47
2023-05-22T10:23:00.740Z,96598.91
2023-05-22T10:25:30.261Z,96602.97
2023-05-22T10:27:58.859Z,96570.03
2023-05-22T10:30:31.022Z,96592.19
2023-05-22T10:33:02.000Z,96593.13
2023-05-22T10:35:34.304Z,96582.81
2023-05-22T10:38:13.878Z,96582.88
2023-05-22T10:40:43.267Z,96584.06
2023-05-22T10:43:10.935Z,96583.34
2023-05-22T10:45:38.632Z,96558.38
2023-05-22T10:48:07.113Z,96580.22
2023-05-22T10:50:35.668Z,96554.53
2023-05-22T10:53:24.134Z,96567.81
2023-05-22T10:55:54.450Z,96553.31
2023-05-22T10:58:27.997Z,96577.88
2023-05-22T11:01:15.808Z,96573.50
2023-05-22T11:03:57.786Z,96568.66
2023-05-22T11:06:38.127Z,96551.69
2023-05-22T11:09:19.597Z,96568.72
2023-05-22T11:11:49.276Z,96541.19
2023-05-22T11:14:17.921Z,96516.31
2023-05-22T11:16:45.587Z,96562.84
2023-05-22T11:19:23.257Z,96564.75
2023-05-22T11:21:51.742Z,96558.00
2023-05-22T11:24:19.467Z,96560.97
2023-05-22T11:27:02.338Z,96562.41
2023-05-22T11:29:30.677Z,96566.34
2023-05-22T11:31:58.649Z,96556.50
2023-05-22T11:34:26.499Z,96554.88
2023-05-22T11:36:58.988Z,96551.69
2023-05-22T11:39:26.631Z,96537.22
2023-05-22T11:41:55.710Z,96546.75
2023-05-22T11:44:23.254Z,96547.47
2023-05-22T11:46:51.414Z,96546.53
2023-05-22T11:49:23.802Z,96548.84
2023-05-22T11:51:52.157Z,96539.97
2023-05-22T11:54:20.173Z,96540.91
2023-05-22T11:56:48.929Z,96536.53
2023-05-22T11:59:17.898Z,96546.91
2023-05-22T12:01:45.450Z,96526.00
2023-05-22T12:04:13.334Z,96533.69
2023-05-22T12:06:41.049Z,96527.50
2023-05-22T12:09:08.943Z,96525.47
2023-05-22T12:11:37.319Z,96533.16
2023-05-22T12:14:05.692Z,96490.25
2023-05-22T12:16:37.222Z,96522.38
2023-05-22T12:19:08.161Z,96517.00
2023-05-22T12:21:36.624Z,96517.88
2023-05-22T12:24:04.958Z,96517.22
2023-05-22T12:26:32.554Z,96515.16
2023-05-22T12:29:00.449Z,96508.84
2023-05-22T12:31:28.192Z,96507.50
2023-05-22T12:33:57.433Z,96513.56
2023-05-22T12:36:34.870Z,96506.00
2023-05-22T12:39:09.054Z,96496.84
2023-05-22T12:41:36.659Z,96507.75
2023-05-22T12:44:04.563Z,96501.50
2023-05-22T12:46:32.506Z,96503.84
2023-05-22T12:49:02.423Z,96510.41
2023-05-22T12:51:31.284Z,96495.22
2023-05-22T12:53:59.330Z,96498.63
2023-05-22T12:56:26.962Z,96504.22
2023-05-22T12:58:54.586Z,96499.25
2023-05-22T13:01:24.303Z,96479.38
2023-05-22T13:03:52.894Z,96490.38
2023-05-22T13:06:21.884Z,96492.97
2023-05-22T13:08:49.450Z,96491.59
2023-05-22T13:11:17.159Z,96500.16
2023-05-22T13:13:44.768Z,96489.06
2023-05-22T13:16:12.441Z,96490.66
2023-05-22T13:18:40.136Z,96483.22
2023-05-22T13:21:07.773Z,96469.56
2023-05-22T13:23:36.675Z,96485.75
2023-05-22T13:26:04.280Z,96485.75
2023-05-22T13:28:31.872Z,96476.72
2023-05-22T13:30:59.913Z,96478.53
2023-05-22T13:33:27.472Z,96464.63
2023-05-22T13:35:55.218Z,96487.66
2023-05-22T13:38:22.810Z,96469.53
2023-05-22T13:40:51.965Z,96475.00
2023-05-22T13:43:19.665Z,96473.78
2023-05-22T13:45:47.233Z,96470.91
2023-05-22T13:48:14.852Z,96451.19
2023-05-22T13:50:42.521Z,96463.84
2023-05-22T13:53:10.131Z,96463.16
2023-05-22T13:55:37.972Z,96462.63
2023-05-22T13:58:07.089Z,96459.41
2023-05-22T14:00:34.668Z,96464.94
2023-05-22T14:03:02.344Z,96457.91
2023-05-22T14:05:30.906Z,96453.19
2023-05-22T14:07:58.572Z,96451.88
2023-05-22T14:10:26.130Z,96465.03
2023-05-22T14:12:55.027Z,96459.09
2023-05-22T14:15:24.488Z,96463.13
2023-05-22T14:17:52.115Z,96454.44
2023-05-22T14:20:19.779Z,96445.19
2023-05-22T14:22:57.217Z,96457.13
2023-05-22T14:25:26.124Z,96454.63
2023-05-22T14:27:53.849Z,96458.66
2023-05-22T14:30:21.397Z,96452.63
2023-05-22T14:32:50.313Z,96449.84
2023-05-22T14:35:18.942Z,96452.38
2023-05-22T14:37:46.860Z,96442.47
2023-05-22T14:40:14.455Z,96446.41
2023-05-22T14:42:42.195Z,96444.97
2023-05-22T14:45:10.415Z,96439.88
2023-05-22T14:47:37.986Z,96440.38
2023-05-22T14:50:19.125Z,96440.78
2023-05-22T14:52:48.225Z,96443.03
2023-05-22T14:55:16.004Z,96443.94
2023-05-22T14:57:43.612Z,96440.66
2023-05-22T15:00:12.682Z,96440.34
2023-05-22T15:02:40.793Z,96435.47
2023-05-22T15:05:10.686Z,96447.56
2023-05-22T15:07:44.442Z,96437.47
2023-05-22T15:10:13.854Z,96439.69
2023-05-22T15:12:41.517Z,96442.94
2023-05-22T15:15:10.045Z,96441.69
2023-05-22T15:17:38.486Z,96436.06
2023-05-22T15:20:07.674Z,96431.72
2023-05-22T15:22:36.593Z,96434.06
2023-05-22T15:25:05.282Z,96431.25
2023-05-22T15:27:32.902Z,96429.94
2023-05-22T15:30:00.654Z,96435.22
2023-05-22T15:32:28.312Z,96405.56
2023-05-22T15:34:55.948Z,96433.13
2023-05-22T15:37:23.626Z,96412.94
2023-05-22T15:39:52.664Z,96428.13
2023-05-22T15:42:20.472Z,96413.59
2023-05-22T15:44:48.033Z,96423.72
2023-05-22T15:47:16.752Z,96415.88
2023-05-22T15:49:44.384Z,96419.09
2023-05-22T15:52:11.950Z,96415.69
2023-05-22T15:54:39.701Z,96412.94
2023-05-22T15:57:08.621Z,96412.31
2023-05-22T15:59:36.187Z,96412.56
2023-05-22T16:02:04.049Z,96411.97
2023-05-22T16:04:32.141Z,96408.28
2023-05-22T16:06:59.737Z,96406.00
2023-05-22T16:09:27.345Z,96417.56
2023-05-22T16:11:54.918Z,96413.66
2023-05-22T16:14:24.004Z,96414.19
2023-05-22T16:16:51.584Z,96420.25
2023-05-22T16:19:19.657Z,96411.38
2023-05-22T16:21:47.297Z,96408.53
2023-05-22T16:24:14.963Z,96416.44
2023-05-22T16:26:42.563Z,96415.97
2023-05-22T16:29:10.199Z,96424.31
2023-05-22T16:31:39.318Z,96418.44
2023-05-22T16:34:18.303Z,96415.25
2023-05-22T16:36:47.069Z,96417.97
2023-05-22T16:39:15.531Z,96420.66
2023-05-22T16:41:46.232Z,96407.16
2023-05-22T16:44:14.161Z,96419.53
2023-05-22T16:46:43.226Z,96417.88
2023-05-22T16:49:10.900Z,96419.53
2023-05-22T16:51:38.785Z,96416.81
2023-05-22T16:54:06.437Z,96422.47
2023-05-22T16:56:34.547Z,96420.78
2023-05-22T16:59:02.163Z,96416.41
2023-05-22T17:07:17.843Z,96418.66
2023-05-22T17:09:45.439Z,96422.13
2023-05-22T17:12:13.123Z,96409.72
2023-05-22T17:14:40.972Z,96409.13
2023-05-22T17:17:09.258Z,96411.53
2023-05-22T17:19:36.940Z,96410.19
2023-05-22T17:22:04.660Z,96413.44
2023-05-22T17:24:34.046Z,96417.75
2023-05-22T17:27:03.373Z,96415.63
2023-05-22T17:29:31.011Z,96416.69
2023-05-22T17:31:58.682Z,96393.84
2023-05-22T17:34:26.278Z,96416.78
2023-05-22T17:36:53.831Z,96417.03
2023-05-22T17:39:21.817Z,96415.41
2023-05-22T17:41:51.214Z,96416.53
2023-05-22T17:44:19.015Z,96410.03
2023-05-22T17:46:46.634Z,96418.41
2023-05-22T17:49:14.274Z,96409.25
2023-05-22T17:51:42.118Z,96416.81
2023-05-22T17:54:09.695Z,96406.88
2023-05-22T17:56:37.502Z,96408.78
2023-05-22T17:59:08.024Z,96409.06
2023-05-22T18:01:35.744Z,96409.88
2023-05-22T18:04:04.803Z,96404.50
2023-05-22T18:09:02.132Z,96416.56
2023-05-22T18:11:29.706Z,96420.31
2023-05-22T18:13:57.321Z,96418.66
2023-05-22T18:16:26.662Z,96401.91
2023-05-22T18:18:54.311Z,96416.97
2023-05-22T18:21:22.011Z,96417.41
2023-05-22T18:23:49.641Z,96413.59
2023-05-22T18:26:17.258Z,96418.09
2023-05-22T18:28:44.806Z,96418.81
2023-05-22T18:31:12.454Z,96414.44
2023-05-22T18:33:44.721Z,96418.66
2023-05-22T18:36:13.934Z,96422.84
2023-05-22T18:38:41.712Z,96399.50
2023-05-22T18:41:09.282Z,96412.91
2023-05-22T18:43:36.991Z,96424.34
2023-05-22T18:46:05.315Z,96427.94
2023-05-22T18:48:33.270Z,96415.31
2023-05-22T18:51:02.389Z,96429.25
2023-05-22T18:53:31.397Z,96411.31
2023-05-22T18:55:59.132Z,96435.13
2023-05-22T18:58:26.752Z,96411.50
2023-05-22T19:00:55.665Z,96437.50
2023-05-22T19:03:23.480Z,96433.59
2023-05-22T19:05:51.127Z,96446.84
2023-05-22T19:08:20.206Z,96414.91
2023-05-22T19:10:47.833Z,96446.66
2023-05-22T19:13:15.442Z,96440.16
2023-05-22T19:15:43.050Z,96446.47
2023-05-22T19:18:11.564Z,96447.16
2023-05-22T19:20:39.569Z,96427.31
2023-05-22T19:23:09.333Z,96446.66
2023-05-22T19:25:38.338Z,96456.78
2023-05-22T19:28:07.049Z,96454.09
2023-05-22T19:30:34.704Z,96442.16
2023-05-22T19:33:02.364Z,96453.13
2023-05-22T19:35:29.967Z,96462.53
2023-05-22T19:37:57.545Z,96460.34
2023-05-22T19:40:25.167Z,96477.31
2023-05-22T19:42:54.237Z,96469.31
2023-05-22T19:45:21.897Z,96472.88
2023-05-22T19:47:49.530Z,96477.72
2023-05-22T19:50:17.578Z,96485.31
2023-05-22T19:52:45.427Z,96472.66
2023-05-22T19:55:13.064Z,96489.75
2023-05-22T19:57:44.195Z,96479.13
2023-05-22T20:00:14.355Z,96490.50
2023-05-22T20:02:41.992Z,96486.59
2023-05-22T20:05:13.306Z,96490.69
2023-05-22T20:07:42.713Z,96490.47
2023-05-22T20:10:11.504Z,96495.50
2023-05-22T20:12:39.493Z,96472.88
2023-05-22T20:15:08.186Z,96472.19
2023-05-22T20:17:38.266Z,96492.72
2023-05-22T20:20:07.791Z,96493.41
2023-05-22T20:22:35.359Z,96489.25
2023-05-22T20:25:05.181Z,96488.91
2023-05-22T20:27:32.977Z,96471.03
2023-05-22T20:30:00.684Z,96493.19
2023-05-22T20:32:28.552Z,96493.66
2023-05-22T20:34:57.483Z,96479.03
2023-05-22T20:37:25.134Z,96478.09
2023-05-22T20:39:52.719Z,96494.34
2023-05-22T20:42:20.300Z,96496.31
2023-05-22T20:44:47.976Z,96500.72
2023-05-22T20:47:15.616Z,96497.38
2023-05-22T20:49:43.385Z,96499.25
2023-05-22T20:52:13.368Z,96508.75
2023-05-22T20:54:41.556Z,96505.16
2023-05-22T20:57:09.121Z,96500.50
2023-05-22T20:59:37.455Z,96500.84
2023-05-22T21:02:05.572Z,96483.00
2023-05-22T21:04:33.176Z,96494.56
2023-05-22T21:07:00.843Z,96494.56
2023-05-22T21:09:29.846Z,96472.28
2023-05-22T21:11:57.482Z,96485.53
2023-05-22T21:14:25.038Z,96485.84
2023-05-22T21:16:52.704Z,96488.66
2023-05-22T21:19:20.294Z,96487.44
2023-05-22T21:21:47.915Z,96494.75
2023-05-22T21:24:15.595Z,96477.78
2023-05-22T21:26:44.614Z,96486.97
2023-05-22T21:29:12.302Z,96464.88
2023-05-22T21:31:39.887Z,96489.28
2023-05-22T21:34:08.377Z,96487.78
2023-05-22T21:36:36.340Z,96486.75
2023-05-22T21:39:03.936Z,96489.66
2023-05-22T21:41:31.590Z,96481.06
2023-05-22T21:44:00.661Z,96479.75
2023-05-22T21:46:28.281Z,96479.84
2023-05-22T21:48:56.009Z,96480.31
2023-05-22T21:51:23.703Z,96480.16
2023-05-22T21:53:51.252Z,96491.88
2023-05-22T21:56:18.932Z,96492.16
2023-05-22T21:58:46.482Z,96495.88
2023-05-22T22:01:15.672Z,96519.66
2023-05-22T22:03:43.257Z,96508.91
2023-05-22T22:06:11.221Z,96511.06
2023-05-22T22:08:38.774Z,96508.84
2023-05-22T22:11:06.578Z,96512.19
2023-05-22T22:13:34.188Z,96511.97
2023-05-22T22:16:01.835Z,96508.34
2023-05-22T22:18:32.811Z,96516.22
2023-05-22T22:21:02.180Z,96512.97
2023-05-22T22:23:29.982Z,96514.19
2023-05-22T22:25:57.666Z,96505.28
2023-05-22T22:28:25.245Z,96506.16
2023-05-22T22:30:55.033Z,96502.88
2023-05-22T22:33:23.415Z,96499.28
2023-05-22T22:35:52.344Z,96503.28
2023-05-22T22:38:20.035Z,96473.31
2023-05-22T22:40:47.571Z,96491.50
2023-05-22T22:43:15.297Z,96495.44
2023-05-22T22:45:43.008Z,96495.13
2023-05-22T22:48:10.824Z,96496.56
2023-05-22T22:50:39.045Z,96507.50
2023-05-22T22:53:08.281Z,96514.72
2023-05-22T22:55:36.000Z,96503.66
2023-05-22T22:58:03.770Z,96507.56
2023-05-22T23:00:31.619Z,96510.88
2023-05-22T23:03:00.027Z,96502.53
2023-05-22T23:05:27.700Z,96499.28
2023-05-22T23:07:55.350Z,96508.31
2023-05-22T23:10:24.242Z,96509.69
2023-05-22T23:12:51.773Z,96507.03
2023-05-22T23:15:19.503Z,96508.66
2023-05-22T23:17:48.093Z,96509.41
2023-05-22T23:20:17.456Z,96507.72
2023-05-22T23:22:45.026Z,96492.53
2023-05-22T23:25:12.662Z,96508.31
2023-05-22T23:27:41.917Z,96507.94
2023-05-22T23:30:10.267Z,96500.22
2023-05-22T23:32:37.820Z,96511.09
2023-05-22T23:35:06.091Z,96505.41
2023-05-22T23:37:33.645Z,96513.59
2023-05-22T23:40:01.277Z,96508.13
2023-05-22T23:42:29.162Z,96505.91
2023-05-22T23:44:58.064Z,96507.53
2023-05-22T23:47:25.709Z,96502.81
2023-05-22T23:49:55.189Z,96475.94
2023-05-22T23:52:22.698Z,96497.34
2023-05-22T23:54:50.463Z,96497.78
2023-05-22T23:57:18.428Z,96496.38
2023-05-22T23:59:45.988Z,96497.19
